createdAt,value
2023-10-30T00:01:05.799Z,11.56
2023-10-30T00:03:32.327Z,11.62
2023-10-30T00:05:58.695Z,11.54
2023-10-30T00:08:25.144Z,11.46
2023-10-30T00:10:51.574Z,11.36
2023-10-30T00:13:18.108Z,11.25
2023-10-30T00:15:44.564Z,11.14
2023-10-30T00:18:11.141Z,11.19
2023-10-30T00:20:37.503Z,11.21
2023-10-30T00:23:04.047Z,10.91
2023-10-30T00:25:30.392Z,10.78
2023-10-30T00:27:56.827Z,10.78
2023-10-30T00:30:23.255Z,10.89
2023-10-30T00:32:49.763Z,10.84
2023-10-30T00:35:16.063Z,10.70
2023-10-30T00:37:42.472Z,10.63
2023-10-30T00:40:08.965Z,10.60
2023-10-30T00:42:35.526Z,10.73
2023-10-30T00:45:01.904Z,10.64
2023-10-30T00:47:28.389Z,10.46
2023-10-30T00:49:54.768Z,10.49
2023-10-30T00:52:21.230Z,10.58
2023-10-30T00:54:47.577Z,10.49
2023-10-30T00:57:14.088Z,10.45
2023-10-30T00:59:40.539Z,10.47
2023-10-30T01:02:07.112Z,10.44
2023-10-30T01:04:33.579Z,10.28
2023-10-30T01:06:59.844Z,10.17
2023-10-30T01:09:26.300Z,10.15
2023-10-30T01:11:52.705Z,10.40
2023-10-30T01:14:19.234Z,10.49
2023-10-30T01:16:45.742Z,10.51
2023-10-30T01:19:12.184Z,10.43
2023-10-30T01:21:38.698Z,10.31
2023-10-30T01:24:05.112Z,10.18
2023-10-30T01:26:31.512Z,10.12
2023-10-30T01:28:58.183Z,10.00
2023-10-30T01:31:24.664Z,10.08
2023-10-30T01:33:51.151Z,10.11
2023-10-30T01:36:17.597Z,10.13
2023-10-30T01:38:43.910Z,10.01
2023-10-30T01:41:10.362Z,9.96
2023-10-30T01:43:36.712Z,10.02
2023-10-30T01:46:03.189Z,9.89
2023-10-30T01:48:29.607Z,9.91
2023-10-30T01:50:56.041Z,9.85
2023-10-30T01:53:22.400Z,9.80
2023-10-30T01:55:48.905Z,9.82
2023-10-30T01:58:15.335Z,9.68
2023-10-30T02:00:41.847Z,9.63
2023-10-30T02:03:08.242Z,9.51
2023-10-30T02:05:34.631Z,9.54
2023-10-30T02:08:00.983Z,9.62
2023-10-30T02:10:27.512Z,9.61
2023-10-30T02:12:53.863Z,9.63
2023-10-30T02:15:20.326Z,9.62
2023-10-30T02:17:46.713Z,9.54
2023-10-30T02:20:13.151Z,9.55
2023-10-30T02:22:39.494Z,9.51
2023-10-30T02:25:06.008Z,9.47
2023-10-30T02:27:32.571Z,9.52
2023-10-30T02:29:58.975Z,9.49
2023-10-30T02:32:25.421Z,9.39
2023-10-30T02:34:52.074Z,9.35
2023-10-30T02:37:18.474Z,9.23
2023-10-30T02:39:44.949Z,9.07
2023-10-30T02:42:11.265Z,9.17
2023-10-30T02:44:37.777Z,9.13
2023-10-30T02:47:04.123Z,9.06
2023-10-30T02:49:30.651Z,9.08
2023-10-30T02:51:57.057Z,9.13
2023-10-30T02:54:23.469Z,9.14
2023-10-30T02:56:49.816Z,9.14
2023-10-30T02:59:16.258Z,9.17
2023-10-30T03:01:42.646Z,9.06
2023-10-30T03:04:09.365Z,9.04
2023-10-30T03:06:35.575Z,8.91
2023-10-30T03:09:02.003Z,8.85
2023-10-30T03:11:28.400Z,8.89
2023-10-30T03:13:54.854Z,8.86
2023-10-30T03:16:21.283Z,8.81
2023-10-30T03:18:47.839Z,8.69
2023-10-30T03:21:14.202Z,8.62
2023-10-30T03:23:40.625Z,8.61
2023-10-30T03:26:06.984Z,8.50
2023-10-30T03:28:33.378Z,8.45
2023-10-30T03:30:59.732Z,8.43
2023-10-30T03:33:26.261Z,8.54
2023-10-30T03:35:52.571Z,8.60
2023-10-30T03:38:19.011Z,8.42
2023-10-30T03:40:45.524Z,8.39
2023-10-30T03:43:11.962Z,8.49
2023-10-30T03:45:38.382Z,8.50
2023-10-30T03:48:04.874Z,8.39
2023-10-30T03:50:31.171Z,8.56
2023-10-30T03:52:57.699Z,8.53
2023-10-30T03:55:24.066Z,8.50
2023-10-30T03:57:50.783Z,8.61
2023-10-30T04:00:17.201Z,8.69
2023-10-30T04:02:43.548Z,8.82
2023-10-30T04:05:09.952Z,8.90
2023-10-30T04:07:36.379Z,8.89
2023-10-30T04:10:02.817Z,8.90
2023-10-30T04:12:29.189Z,8.70
2023-10-30T04:14:55.693Z,8.60
2023-10-30T04:17:22.043Z,8.66
2023-10-30T04:19:48.583Z,8.75
2023-10-30T04:22:14.889Z,8.79
2023-10-30T04:24:41.343Z,8.96
2023-10-30T04:27:07.714Z,9.10
2023-10-30T04:29:34.182Z,9.03
2023-10-30T04:32:00.575Z,8.92
2023-10-30T04:34:26.951Z,8.90
2023-10-30T04:36:53.485Z,8.98
2023-10-30T04:39:19.888Z,8.92
2023-10-30T04:41:46.224Z,8.84
2023-10-30T04:44:12.684Z,8.81
2023-10-30T04:46:39.069Z,8.80
2023-10-30T04:49:05.482Z,8.67
2023-10-30T04:51:31.928Z,8.60
2023-10-30T04:53:58.351Z,8.70
2023-10-30T04:56:24.673Z,8.68
2023-10-30T04:58:51.145Z,8.76
2023-10-30T05:01:17.525Z,8.68
2023-10-30T05:03:44.019Z,8.56
2023-10-30T05:06:10.377Z,8.66
2023-10-30T05:08:36.808Z,8.64
2023-10-30T05:11:03.164Z,8.72
2023-10-30T05:13:29.683Z,8.80
2023-10-30T05:15:56.106Z,8.88
2023-10-30T05:18:22.514Z,9.15
2023-10-30T05:20:48.820Z,9.17
2023-10-30T05:23:15.309Z,9.21
2023-10-30T05:25:43.196Z,9.46
2023-10-30T05:28:08.418Z,9.81
2023-10-30T05:30:35.009Z,9.87
2023-10-30T05:33:01.368Z,9.93
2023-10-30T05:35:27.701Z,10.07
2023-10-30T05:37:54.194Z,10.37
2023-10-30T05:40:20.646Z,10.60
2023-10-30T05:42:47.113Z,10.66
2023-10-30T05:45:13.558Z,10.57
2023-10-30T05:47:40.063Z,10.66
2023-10-30T05:50:06.309Z,10.73
2023-10-30T05:52:32.758Z,11.12
2023-10-30T05:54:59.111Z,11.39
2023-10-30T05:57:25.573Z,11.56
2023-10-30T05:59:52.005Z,11.68
2023-10-30T06:02:18.554Z,11.74
2023-10-30T06:04:44.895Z,12.19
2023-10-30T06:07:11.372Z,12.41
2023-10-30T06:09:37.782Z,12.56
2023-10-30T06:12:04.326Z,12.82
2023-10-30T06:14:30.864Z,12.94
2023-10-30T06:16:57.199Z,13.21
2023-10-30T06:19:23.587Z,13.57
2023-10-30T06:21:50.095Z,14.00
2023-10-30T06:24:16.449Z,14.21
2023-10-30T06:26:42.993Z,14.09
2023-10-30T06:29:09.335Z,14.46
2023-10-30T06:31:35.851Z,14.69
2023-10-30T06:34:02.239Z,14.79
2023-10-30T06:36:28.789Z,15.12
2023-10-30T06:38:55.346Z,15.45
2023-10-30T06:41:21.820Z,15.61
2023-10-30T06:43:48.181Z,15.82
2023-10-30T06:46:14.911Z,15.82
2023-10-30T06:48:41.298Z,15.93
2023-10-30T06:51:07.714Z,16.00
2023-10-30T06:53:34.075Z,16.55
2023-10-30T06:56:00.698Z,16.92
2023-10-30T06:58:27.220Z,16.79
2023-10-30T07:00:53.851Z,16.44
2023-10-30T07:03:21.553Z,16.56
2023-10-30T07:05:47.959Z,16.67
2023-10-30T07:08:14.737Z,16.78
2023-10-30T07:10:41.855Z,17.39
2023-10-30T07:13:08.419Z,17.43
2023-10-30T07:15:35.862Z,17.64
2023-10-30T07:18:04.439Z,17.68
2023-10-30T07:20:30.862Z,17.94
2023-10-30T07:22:57.218Z,17.96
2023-10-30T07:25:23.708Z,18.15
2023-10-30T07:27:50.246Z,17.94
2023-10-30T07:30:16.633Z,17.94
2023-10-30T07:32:43.049Z,18.33
2023-10-30T07:35:09.486Z,18.29
2023-10-30T07:37:35.968Z,17.89
2023-10-30T07:40:02.438Z,17.66
2023-10-30T07:42:28.890Z,17.85
2023-10-30T07:44:55.443Z,18.25
2023-10-30T07:47:33.045Z,18.12
2023-10-30T07:49:48.365Z,18.21
2023-10-30T07:52:14.889Z,18.69
2023-10-30T07:54:41.314Z,18.81
2023-10-30T07:57:07.647Z,19.04
2023-10-30T07:59:34.252Z,19.15
2023-10-30T08:02:00.661Z,19.02
2023-10-30T08:04:27.285Z,19.49
2023-10-30T08:06:53.664Z,19.33
2023-10-30T08:09:20.198Z,19.54
2023-10-30T08:11:46.670Z,19.45
2023-10-30T08:14:13.203Z,19.34
2023-10-30T08:16:39.655Z,19.88
2023-10-30T08:19:06.070Z,19.76
2023-10-30T08:21:32.502Z,19.82
2023-10-30T08:23:58.875Z,20.13
2023-10-30T08:26:25.270Z,20.21
2023-10-30T08:28:51.799Z,20.15
2023-10-30T08:31:18.160Z,20.69
2023-10-30T08:33:44.721Z,20.02
2023-10-30T08:36:11.207Z,20.51
2023-10-30T08:38:37.604Z,20.99
2023-10-30T08:41:03.982Z,21.58
2023-10-30T08:43:30.522Z,21.82
2023-10-30T08:45:56.974Z,21.75
2023-10-30T08:48:23.551Z,22.00
2023-10-30T08:50:49.830Z,21.84
2023-10-30T08:53:16.390Z,21.54
2023-10-30T08:55:42.949Z,21.84
2023-10-30T08:58:09.299Z,22.16
2023-10-30T09:00:35.691Z,22.54
2023-10-30T09:03:02.214Z,22.59
2023-10-30T09:05:28.831Z,22.81
2023-10-30T09:07:55.141Z,23.04
2023-10-30T09:10:21.518Z,23.61
2023-10-30T09:12:48.097Z,23.57
2023-10-30T09:15:14.395Z,23.47
2023-10-30T09:17:40.879Z,23.35
2023-10-30T09:20:07.302Z,23.03
2023-10-30T09:22:33.740Z,23.32
2023-10-30T09:25:00.153Z,23.58
2023-10-30T09:27:26.623Z,23.87
2023-10-30T09:29:52.930Z,23.97
2023-10-30T09:32:19.506Z,24.10
2023-10-30T09:34:45.825Z,24.41
2023-10-30T09:37:12.342Z,24.49
2023-10-30T09:39:38.826Z,24.52
2023-10-30T09:42:05.297Z,24.73
2023-10-30T09:44:31.701Z,24.53
2023-10-30T09:46:58.171Z,24.71
2023-10-30T09:49:24.700Z,24.01
2023-10-30T09:51:51.165Z,24.15
2023-10-30T09:54:17.572Z,24.53
2023-10-30T09:56:43.974Z,24.61
2023-10-30T09:59:10.337Z,24.81
2023-10-30T10:01:37.024Z,25.16
2023-10-30T10:04:03.308Z,25.41
2023-10-30T10:06:29.702Z,25.59
2023-10-30T10:08:56.042Z,25.76
2023-10-30T10:11:22.520Z,26.04
2023-10-30T10:14:03.784Z,25.89
2023-10-30T10:16:15.586Z,25.93
2023-10-30T10:18:41.925Z,25.97
2023-10-30T10:21:08.329Z,25.38
2023-10-30T10:23:34.787Z,25.51
2023-10-30T10:26:01.399Z,26.32
2023-10-30T10:28:27.768Z,26.31
2023-10-30T10:30:54.313Z,26.16
2023-10-30T10:33:23.711Z,26.36
2023-10-30T10:35:50.113Z,26.13
2023-10-30T10:38:16.564Z,25.82
2023-10-30T10:40:44.006Z,26.11
2023-10-30T10:43:09.527Z,25.84
2023-10-30T10:45:36.024Z,25.81
2023-10-30T10:48:02.513Z,26.32
2023-10-30T10:50:28.921Z,26.82
2023-10-30T10:52:55.321Z,26.75
2023-10-30T10:55:21.888Z,26.78
2023-10-30T10:57:48.346Z,26.52
2023-10-30T11:00:14.750Z,26.74
2023-10-30T11:02:41.227Z,26.84
2023-10-30T11:05:07.617Z,27.01
2023-10-30T11:07:34.050Z,27.42
2023-10-30T11:10:00.597Z,27.27
2023-10-30T11:12:26.869Z,26.81
2023-10-30T11:14:53.314Z,27.19
2023-10-30T11:17:19.709Z,27.52
2023-10-30T11:19:46.225Z,27.83
2023-10-30T11:22:12.570Z,28.15
2023-10-30T11:24:39.114Z,27.13
2023-10-30T11:27:05.389Z,27.13
2023-10-30T11:29:31.873Z,27.44
2023-10-30T11:31:58.304Z,26.72
2023-10-30T11:34:24.727Z,26.93
2023-10-30T11:36:51.097Z,27.56
2023-10-30T11:39:17.578Z,27.71
2023-10-30T11:41:44.011Z,27.63
2023-10-30T11:44:10.431Z,27.98
2023-10-30T11:46:36.908Z,27.95
2023-10-30T11:49:04.427Z,27.80
2023-10-30T11:51:30.855Z,27.78
2023-10-30T11:53:57.291Z,27.99
2023-10-30T11:56:23.653Z,27.61
2023-10-30T11:58:50.057Z,27.69
2023-10-30T12:01:16.514Z,27.81
2023-10-30T12:03:43.001Z,27.84
2023-10-30T12:06:09.288Z,27.86
2023-10-30T12:08:35.792Z,27.64
2023-10-30T12:11:02.147Z,28.24
2023-10-30T12:13:28.781Z,28.09
2023-10-30T12:15:55.219Z,28.21
2023-10-30T12:18:21.646Z,28.38
2023-10-30T12:20:48.004Z,28.52
2023-10-30T12:23:14.488Z,28.75
2023-10-30T12:25:40.870Z,28.50
2023-10-30T12:28:10.526Z,27.87
2023-10-30T12:30:37.194Z,27.64
2023-10-30T12:33:03.507Z,27.35
2023-10-30T12:35:29.871Z,27.54
2023-10-30T12:37:56.317Z,27.81
2023-10-30T12:40:22.709Z,27.84
2023-10-30T12:42:49.281Z,28.34
2023-10-30T12:45:15.736Z,28.62
2023-10-30T12:47:43.345Z,29.10
2023-10-30T12:50:09.641Z,29.20
2023-10-30T12:52:36.023Z,29.19
2023-10-30T12:55:02.551Z,29.08
2023-10-30T12:57:28.931Z,29.13
2023-10-30T12:59:55.555Z,29.08
2023-10-30T13:02:22.139Z,29.09
2023-10-30T13:04:48.641Z,29.12
2023-10-30T13:07:14.789Z,29.08
2023-10-30T13:09:41.259Z,28.71
2023-10-30T13:12:07.694Z,28.69
2023-10-30T13:14:34.045Z,28.29
2023-10-30T13:17:00.520Z,27.95
2023-10-30T13:19:27.084Z,27.59
2023-10-30T13:21:53.622Z,26.89
2023-10-30T13:24:19.967Z,26.54
2023-10-30T13:26:46.474Z,26.41
2023-10-30T13:29:13.128Z,26.12
2023-10-30T13:31:39.738Z,25.78
2023-10-30T13:34:06.304Z,25.55
2023-10-30T13:36:32.647Z,25.36
2023-10-30T13:38:58.960Z,25.23
2023-10-30T13:41:25.457Z,25.02
2023-10-30T13:43:53.500Z,24.86
2023-10-30T13:46:18.294Z,24.84
2023-10-30T13:48:44.680Z,24.69
2023-10-30T13:51:11.063Z,24.71
2023-10-30T13:53:37.415Z,24.67
2023-10-30T13:56:03.906Z,24.60
2023-10-30T13:58:30.303Z,24.55
2023-10-30T14:00:56.808Z,24.47
2023-10-30T14:03:23.200Z,24.37
2023-10-30T14:05:49.612Z,24.26
2023-10-30T14:08:16.013Z,24.11
2023-10-30T14:10:42.502Z,24.11
2023-10-30T14:13:09.008Z,24.04
2023-10-30T14:15:35.624Z,23.99
2023-10-30T14:18:02.004Z,24.00
2023-10-30T14:20:28.533Z,23.99
2023-10-30T14:22:54.922Z,23.94
2023-10-30T14:25:21.366Z,23.84
2023-10-30T14:27:47.847Z,23.79
2023-10-30T14:30:14.221Z,23.73
2023-10-30T14:32:40.793Z,23.65
2023-10-30T14:35:07.145Z,23.61
2023-10-30T14:37:33.638Z,23.58
2023-10-30T14:40:00.058Z,23.58
2023-10-30T14:42:26.416Z,23.52
2023-10-30T14:44:53.398Z,23.48
2023-10-30T14:47:19.899Z,23.43
2023-10-30T14:49:46.309Z,23.31
2023-10-30T14:52:12.724Z,23.16
2023-10-30T14:54:39.149Z,23.11
2023-10-30T14:57:05.727Z,23.04
2023-10-30T14:59:32.258Z,22.97
2023-10-30T15:01:58.712Z,22.94
2023-10-30T15:04:25.275Z,22.84
2023-10-30T15:06:51.989Z,22.74
2023-10-30T15:09:18.382Z,22.62
2023-10-30T15:11:44.842Z,22.47
2023-10-30T15:14:11.464Z,22.17
2023-10-30T15:16:39.285Z,21.95
2023-10-30T15:19:06.681Z,21.83
2023-10-30T15:21:33.138Z,21.69
2023-10-30T15:24:01.676Z,21.57
2023-10-30T15:26:28.132Z,21.47
2023-10-30T15:28:54.759Z,21.36
2023-10-30T15:31:21.166Z,21.25
2023-10-30T15:33:47.713Z,21.14
2023-10-30T15:36:14.186Z,21.03
2023-10-30T15:38:40.617Z,20.87
2023-10-30T15:41:07.057Z,20.75
2023-10-30T15:43:33.444Z,20.64
2023-10-30T15:45:59.980Z,20.56
2023-10-30T15:48:26.647Z,20.42
2023-10-30T15:50:55.308Z,20.30
2023-10-30T16:00:43.379Z,19.98
2023-10-30T16:08:02.828Z,19.44
2023-10-30T16:10:30.167Z,19.23
2023-10-30T16:12:55.690Z,19.09
2023-10-30T16:15:22.155Z,19.03
2023-10-30T16:18:20.675Z,18.99
2023-10-30T16:22:41.422Z,18.86
2023-10-30T16:25:09.211Z,18.83
2023-10-30T16:27:35.664Z,18.87
2023-10-30T16:30:02.120Z,18.79
2023-10-30T16:32:28.524Z,18.68
2023-10-30T16:34:54.982Z,18.62
2023-10-30T16:37:21.383Z,18.53
2023-10-30T16:39:48.080Z,18.45
2023-10-30T16:42:14.325Z,18.44
2023-10-30T16:44:40.754Z,18.39
2023-10-30T16:47:07.365Z,18.24
2023-10-30T16:49:33.749Z,18.18
2023-10-30T16:52:04.116Z,18.19
2023-10-30T16:54:30.529Z,18.19
2023-10-30T16:56:56.891Z,18.12
2023-10-30T16:59:23.287Z,18.02
2023-10-30T17:01:49.758Z,17.95
2023-10-30T17:04:16.231Z,17.90
2023-10-30T17:06:42.645Z,17.81
2023-10-30T17:09:09.075Z,17.77
2023-10-30T17:11:35.482Z,17.76
2023-10-30T17:14:01.959Z,17.74
2023-10-30T17:16:28.449Z,17.72
2023-10-30T17:18:54.909Z,17.66
2023-10-30T17:21:21.273Z,17.67
2023-10-30T17:23:47.869Z,17.69
2023-10-30T17:26:14.354Z,17.64
2023-10-30T17:28:40.874Z,17.62
2023-10-30T17:31:07.232Z,17.64
2023-10-30T17:33:36.229Z,17.63
2023-10-30T17:36:02.627Z,17.63
2023-10-30T17:38:29.150Z,17.62
2023-10-30T17:40:55.661Z,17.41
2023-10-30T17:43:22.142Z,17.27
2023-10-30T17:45:48.473Z,17.30
2023-10-30T17:48:15.027Z,17.26
2023-10-30T17:50:41.421Z,17.21
2023-10-30T17:53:07.989Z,17.14
2023-10-30T17:55:34.479Z,17.14
2023-10-30T17:58:00.844Z,17.19
2023-10-30T18:00:27.167Z,17.28
2023-10-30T18:02:53.761Z,17.26
2023-10-30T18:05:20.119Z,17.21
2023-10-30T18:07:48.472Z,17.18
2023-10-30T18:10:12.884Z,17.10
2023-10-30T18:12:39.416Z,17.04
2023-10-30T18:15:05.842Z,16.99
2023-10-30T18:17:32.448Z,16.94
2023-10-30T18:19:58.792Z,16.99
2023-10-30T18:22:25.303Z,17.00
2023-10-30T18:24:51.921Z,16.97
2023-10-30T18:27:18.432Z,16.99
2023-10-30T18:29:44.796Z,16.98
2023-10-30T18:32:11.336Z,16.93
2023-10-30T18:34:37.764Z,16.85
2023-10-30T18:37:04.406Z,16.84
2023-10-30T18:39:30.675Z,16.81
2023-10-30T18:41:57.142Z,16.80
2023-10-30T18:44:23.656Z,16.82
2023-10-30T18:46:50.210Z,16.75
2023-10-30T18:49:16.502Z,16.65
2023-10-30T18:51:42.948Z,16.55
2023-10-30T18:54:09.292Z,16.39
2023-10-30T18:56:35.843Z,16.23
2023-10-30T18:59:02.270Z,16.12
2023-10-30T19:01:28.705Z,16.14
2023-10-30T19:03:56.218Z,16.07
2023-10-30T19:06:21.557Z,16.10
2023-10-30T19:08:47.942Z,16.19
2023-10-30T19:11:14.366Z,16.15
2023-10-30T19:13:40.877Z,16.12
2023-10-30T19:16:07.324Z,16.09
2023-10-30T19:18:33.695Z,16.10
2023-10-30T19:21:00.193Z,16.07
2023-10-30T19:23:26.590Z,16.04
2023-10-30T19:25:53.280Z,16.11
2023-10-30T19:28:19.591Z,16.15
2023-10-30T19:30:46.062Z,16.12
2023-10-30T19:33:12.539Z,16.04
2023-10-30T19:35:38.967Z,15.97
2023-10-30T19:38:05.431Z,15.94
2023-10-30T19:40:34.205Z,15.79
2023-10-30T19:43:01.741Z,15.77
2023-10-30T19:45:28.541Z,15.71
2023-10-30T19:47:54.869Z,15.59
2023-10-30T19:50:21.471Z,15.54
2023-10-30T19:52:47.859Z,15.66
2023-10-30T19:55:16.486Z,15.76
2023-10-30T19:57:42.883Z,15.82
2023-10-30T20:00:09.374Z,15.73
2023-10-30T20:02:36.884Z,15.65
2023-10-30T20:05:03.253Z,15.51
2023-10-30T20:07:30.367Z,15.39
2023-10-30T20:10:09.191Z,15.32
2023-10-30T20:12:23.344Z,15.19
2023-10-30T20:14:51.855Z,15.13
2023-10-30T20:17:18.382Z,15.08
2023-10-30T20:19:44.784Z,15.04
2023-10-30T20:22:11.307Z,15.03
2023-10-30T20:24:37.861Z,14.98
2023-10-30T20:27:04.228Z,14.91
2023-10-30T20:29:30.747Z,14.90
2023-10-30T20:31:57.520Z,14.83
2023-10-30T20:34:23.890Z,14.82
2023-10-30T20:36:50.244Z,14.81
2023-10-30T20:39:17.067Z,14.83
2023-10-30T20:41:43.502Z,14.82
2023-10-30T20:44:09.944Z,14.79
2023-10-30T20:46:36.382Z,14.80
2023-10-30T20:49:03.007Z,14.78
2023-10-30T20:51:29.453Z,14.64
2023-10-30T20:53:57.011Z,14.54
2023-10-30T20:56:23.437Z,14.45
2023-10-30T20:58:49.899Z,14.51
2023-10-30T21:01:16.293Z,14.55
2023-10-30T21:03:42.660Z,14.44
2023-10-30T21:06:09.140Z,14.23
2023-10-30T21:08:35.509Z,14.11
2023-10-30T21:11:01.860Z,14.16
2023-10-30T21:13:28.480Z,14.17
2023-10-30T21:15:54.971Z,14.09
2023-10-30T21:18:21.221Z,14.04
2023-10-30T21:20:47.620Z,14.02
2023-10-30T21:23:14.106Z,14.08
2023-10-30T21:25:40.503Z,14.04
2023-10-30T21:28:06.957Z,14.09
2023-10-30T21:30:33.413Z,14.03
2023-10-30T21:32:59.981Z,13.95
2023-10-30T21:35:26.356Z,13.96
2023-10-30T21:37:52.784Z,14.00
2023-10-30T21:40:19.535Z,13.95
2023-10-30T21:42:45.978Z,13.88
2023-10-30T21:45:12.406Z,13.79
2023-10-30T21:47:38.875Z,13.72
2023-10-30T21:50:05.259Z,13.62
2023-10-30T21:52:31.858Z,13.64
2023-10-30T21:54:58.207Z,13.55
2023-10-30T21:57:24.790Z,13.54
2023-10-30T21:59:51.210Z,13.53
2023-10-30T22:02:17.859Z,13.47
2023-10-30T22:04:44.211Z,13.54
2023-10-30T22:07:12.978Z,13.52
2023-10-30T22:09:39.520Z,13.40
2023-10-30T22:12:05.929Z,13.27
2023-10-30T22:14:32.363Z,13.17
2023-10-30T22:16:58.899Z,13.07
2023-10-30T22:19:25.320Z,13.04
2023-10-30T22:21:51.722Z,13.09
2023-10-30T22:24:18.203Z,13.12
2023-10-30T22:26:44.649Z,13.04
2023-10-30T22:29:11.022Z,13.02
2023-10-30T22:31:37.537Z,12.99
2023-10-30T22:34:03.936Z,12.92
2023-10-30T22:36:30.490Z,12.97
2023-10-30T22:38:56.922Z,13.01
2023-10-30T22:41:23.364Z,12.99
2023-10-30T22:43:49.896Z,12.92
2023-10-30T22:46:16.288Z,12.84
2023-10-30T22:48:42.620Z,12.77
2023-10-30T22:51:09.072Z,12.59
2023-10-30T22:53:35.477Z,12.53
2023-10-30T22:56:01.992Z,12.47
2023-10-30T22:58:28.321Z,12.34
2023-10-30T23:00:54.858Z,12.21
2023-10-30T23:03:21.193Z,12.09
2023-10-30T23:05:47.690Z,12.00
2023-10-30T23:08:14.221Z,11.95
2023-10-30T23:10:40.555Z,12.01
2023-10-30T23:13:06.890Z,12.02
2023-10-30T23:15:33.408Z,12.12
2023-10-30T23:17:59.818Z,12.20
2023-10-30T23:20:26.257Z,12.20
2023-10-30T23:22:52.665Z,12.08
2023-10-30T23:25:19.147Z,12.02
2023-10-30T23:27:45.485Z,12.05
2023-10-30T23:30:12.000Z,12.02
2023-10-30T23:32:38.570Z,11.93
2023-10-30T23:35:04.999Z,11.65
2023-10-30T23:37:31.410Z,11.43
2023-10-30T23:39:57.830Z,11.32
2023-10-30T23:42:24.788Z,11.25
2023-10-30T23:44:51.205Z,11.36
2023-10-30T23:47:17.620Z,11.44
2023-10-30T23:49:44.124Z,11.58
2023-10-30T23:52:10.508Z,11.62
2023-10-30T23:54:38.506Z,11.58
2023-10-30T23:57:03.376Z,11.60
2023-10-30T23:59:29.823Z,11.63
